createdAt,value
2022-11-22T00:00:53.244Z,6.69
2022-11-22T00:03:21.294Z,6.79
2022-11-22T00:05:49.199Z,6.79
2022-11-22T00:08:17.060Z,6.81
2022-11-22T00:10:44.946Z,6.71
2022-11-22T00:13:12.812Z,6.98
2022-11-22T00:15:41.971Z,6.97
2022-11-22T00:18:10.087Z,6.81
2022-11-22T00:20:37.903Z,6.78
2022-11-22T00:23:05.685Z,6.74
2022-11-22T00:25:33.371Z,6.75
2022-11-22T00:28:01.445Z,6.92
2022-11-22T00:30:29.176Z,6.74
2022-11-22T00:32:58.475Z,6.86
2022-11-22T00:35:26.632Z,6.80
2022-11-22T00:37:54.325Z,6.96
2022-11-22T00:40:22.129Z,6.74
2022-11-22T00:42:49.773Z,6.75
2022-11-22T00:45:17.621Z,7.01
2022-11-22T00:47:45.545Z,6.98
2022-11-22T00:50:14.595Z,7.14
2022-11-22T00:52:42.383Z,6.93
2022-11-22T00:55:10.455Z,7.15
2022-11-22T00:57:38.482Z,6.88
2022-11-22T01:00:07.707Z,6.76
2022-11-22T01:02:35.678Z,6.84
2022-11-22T01:05:03.473Z,6.75
2022-11-22T01:07:32.696Z,6.69
2022-11-22T01:10:00.969Z,6.65
2022-11-22T01:12:28.767Z,6.61
2022-11-22T01:14:56.456Z,6.55
2022-11-22T01:17:24.312Z,6.54
2022-11-22T01:19:51.927Z,6.83
2022-11-22T01:22:19.858Z,6.70
2022-11-22T01:24:48.996Z,6.54
2022-11-22T01:27:16.775Z,6.59
2022-11-22T01:29:44.417Z,6.54
2022-11-22T01:32:12.400Z,6.62
2022-11-22T01:34:40.030Z,6.51
2022-11-22T01:37:08.055Z,6.59
2022-11-22T01:39:35.758Z,6.59
2022-11-22T01:42:05.308Z,6.54
2022-11-22T01:44:34.277Z,6.54
2022-11-22T01:47:06.084Z,6.55
2022-11-22T01:49:40.314Z,6.62
2022-11-22T01:52:14.228Z,6.58
2022-11-22T01:54:45.035Z,6.57
2022-11-22T01:57:18.284Z,6.53
2022-11-22T01:59:51.261Z,6.75
2022-11-22T02:02:19.272Z,6.83
2022-11-22T02:04:48.531Z,6.79
2022-11-22T02:07:22.373Z,6.66
2022-11-22T02:09:53.045Z,6.65
2022-11-22T02:12:27.149Z,6.61
2022-11-22T02:14:55.783Z,6.63
2022-11-22T02:17:27.083Z,6.63
2022-11-22T02:19:55.358Z,6.71
2022-11-22T02:22:31.484Z,6.66
2022-11-22T02:25:07.230Z,6.68
2022-11-22T02:27:36.273Z,6.66
2022-11-22T02:30:04.731Z,6.68
2022-11-22T02:32:32.651Z,6.75
2022-11-22T02:35:00.389Z,6.63
2022-11-22T02:37:32.027Z,6.61
2022-11-22T02:40:03.694Z,6.58
2022-11-22T02:42:32.310Z,6.73
2022-11-22T02:45:01.592Z,6.61
2022-11-22T02:47:29.373Z,6.61
2022-11-22T02:49:57.049Z,6.61
2022-11-22T02:52:24.761Z,6.81
2022-11-22T02:54:53.328Z,6.91
2022-11-22T02:57:21.089Z,6.77
2022-11-22T02:59:48.880Z,6.67
2022-11-22T03:02:17.915Z,6.62
2022-11-22T03:04:46.134Z,6.65
2022-11-22T03:07:13.940Z,6.62
2022-11-22T03:09:41.618Z,6.68
2022-11-22T03:12:09.383Z,6.73
2022-11-22T03:14:37.108Z,6.70
2022-11-22T03:17:04.777Z,6.72
2022-11-22T03:19:34.076Z,6.72
2022-11-22T03:22:01.712Z,6.70
2022-11-22T03:24:29.408Z,6.73
2022-11-22T03:26:57.143Z,6.75
2022-11-22T03:29:24.992Z,6.76
2022-11-22T03:31:52.723Z,6.79
2022-11-22T03:34:20.830Z,6.78
2022-11-22T03:36:49.949Z,6.80
2022-11-22T03:39:17.973Z,6.79
2022-11-22T03:41:45.700Z,6.77
2022-11-22T03:44:13.417Z,6.75
2022-11-22T03:46:41.305Z,6.76
2022-11-22T03:49:08.999Z,6.79
2022-11-22T03:51:36.764Z,6.79
2022-11-22T03:54:06.223Z,6.81
2022-11-22T03:56:33.940Z,6.77
2022-11-22T03:59:01.770Z,6.74
2022-11-22T04:01:29.556Z,6.69
2022-11-22T04:03:58.521Z,6.66
2022-11-22T04:06:26.348Z,6.62
2022-11-22T04:08:54.471Z,6.60
2022-11-22T04:11:23.508Z,6.55
2022-11-22T04:14:08.708Z,6.53
2022-11-22T04:16:36.386Z,6.52
2022-11-22T04:19:04.192Z,6.47
2022-11-22T04:21:33.829Z,6.45
2022-11-22T04:24:19.984Z,6.45
2022-11-22T04:26:50.006Z,6.43
2022-11-22T04:29:18.399Z,6.37
2022-11-22T04:32:03.470Z,6.40
2022-11-22T04:34:31.392Z,6.43
2022-11-22T04:36:59.720Z,6.39
2022-11-22T04:39:28.085Z,6.41
2022-11-22T04:42:12.218Z,6.37
2022-11-22T04:44:43.188Z,6.34
2022-11-22T04:47:12.584Z,6.30
2022-11-22T04:49:40.322Z,6.23
2022-11-22T04:52:25.457Z,6.15
2022-11-22T04:54:53.268Z,6.07
2022-11-22T04:57:22.335Z,6.01
2022-11-22T04:59:50.125Z,6.01
2022-11-22T05:02:17.800Z,5.97
2022-11-22T05:04:50.481Z,5.95
2022-11-22T05:07:18.772Z,5.82
2022-11-22T05:09:46.772Z,5.77
2022-11-22T05:12:14.907Z,5.73
2022-11-22T05:14:44.094Z,5.65
2022-11-22T05:17:13.662Z,5.64
2022-11-22T05:19:46.260Z,5.75
2022-11-22T05:22:16.808Z,5.80
2022-11-22T05:24:43.488Z,5.91
2022-11-22T05:27:11.162Z,6.00
2022-11-22T05:29:39.011Z,6.07
2022-11-22T05:32:08.150Z,6.16
2022-11-22T05:34:36.469Z,6.24
2022-11-22T05:37:04.121Z,6.36
2022-11-22T05:39:32.083Z,6.46
2022-11-22T05:42:00.104Z,6.56
2022-11-22T05:44:27.747Z,6.63
2022-11-22T05:46:55.413Z,6.69
2022-11-22T05:49:24.575Z,6.74
2022-11-22T05:51:52.646Z,6.72
2022-11-22T05:54:20.579Z,6.81
2022-11-22T05:56:48.868Z,6.78
2022-11-22T05:59:16.876Z,6.76
2022-11-22T06:01:44.673Z,6.74
2022-11-22T06:04:12.404Z,6.69
2022-11-22T06:06:41.402Z,6.68
2022-11-22T06:09:09.144Z,6.66
2022-11-22T06:11:37.012Z,6.66
2022-11-22T06:14:04.690Z,6.68
2022-11-22T06:16:32.664Z,6.78
2022-11-22T06:19:00.408Z,6.77
2022-11-22T06:21:28.617Z,6.75
2022-11-22T06:23:58.223Z,6.77
2022-11-22T06:26:27.061Z,6.76
2022-11-22T06:28:55.802Z,6.75
2022-11-22T06:31:25.651Z,6.80
2022-11-22T06:33:55.419Z,6.86
2022-11-22T06:36:25.108Z,6.85
2022-11-22T06:38:53.025Z,6.82
2022-11-22T06:41:23.945Z,6.80
2022-11-22T06:43:53.320Z,6.78
2022-11-22T06:46:23.534Z,6.80
2022-11-22T06:48:51.761Z,6.83
2022-11-22T06:51:21.288Z,6.86
2022-11-22T06:53:50.310Z,6.87
2022-11-22T06:56:20.588Z,6.89
2022-11-22T06:58:50.999Z,6.87
2022-11-22T07:01:20.743Z,6.84
2022-11-22T07:03:49.516Z,6.86
2022-11-22T07:06:19.938Z,6.86
2022-11-22T07:08:48.747Z,6.81
2022-11-22T07:11:18.367Z,6.75
2022-11-22T07:13:47.605Z,6.75
2022-11-22T07:16:18.837Z,6.80
2022-11-22T07:18:46.916Z,6.79
2022-11-22T07:21:16.414Z,6.79
2022-11-22T07:23:46.600Z,6.85
2022-11-22T07:26:16.472Z,6.83
2022-11-22T07:28:45.271Z,6.83
2022-11-22T07:31:14.779Z,6.82
2022-11-22T07:33:44.995Z,6.83
2022-11-22T07:36:14.738Z,6.86
2022-11-22T07:38:42.606Z,6.91
2022-11-22T07:41:11.227Z,6.92
2022-11-22T07:43:39.337Z,6.96
2022-11-22T07:46:09.114Z,6.94
2022-11-22T07:48:36.888Z,6.97
2022-11-22T07:51:07.455Z,7.03
2022-11-22T07:53:35.805Z,7.01
2022-11-22T07:56:04.847Z,7.02
2022-11-22T07:58:33.971Z,7.03
2022-11-22T08:01:07.174Z,7.10
2022-11-22T08:03:35.404Z,7.06
2022-11-22T08:06:04.321Z,7.02
2022-11-22T08:08:34.526Z,6.97
2022-11-22T08:11:02.745Z,6.96
2022-11-22T08:13:31.754Z,6.98
2022-11-22T08:16:05.592Z,6.95
2022-11-22T08:18:34.546Z,6.95
2022-11-22T08:21:07.073Z,6.95
2022-11-22T08:23:37.168Z,6.97
2022-11-22T08:26:05.992Z,6.98
2022-11-22T08:28:33.943Z,7.04
2022-11-22T08:31:03.738Z,7.01
2022-11-22T08:33:31.686Z,7.11
2022-11-22T08:35:59.456Z,7.09
2022-11-22T08:38:27.265Z,7.11
2022-11-22T08:40:56.889Z,7.11
2022-11-22T08:43:24.906Z,7.08
2022-11-22T08:45:56.302Z,7.13
2022-11-22T08:48:24.925Z,7.19
2022-11-22T08:50:53.682Z,7.23
2022-11-22T08:53:21.765Z,7.25
2022-11-22T08:55:49.994Z,7.21
2022-11-22T08:58:19.275Z,7.18
2022-11-22T09:00:47.320Z,7.22
2022-11-22T09:03:15.094Z,7.23
2022-11-22T09:08:34.232Z,7.27
2022-11-22T09:11:05.423Z,7.29
2022-11-22T09:13:35.166Z,7.32
2022-11-22T09:16:04.022Z,7.35
2022-11-22T09:18:31.800Z,7.39
2022-11-22T09:21:00.537Z,7.44
2022-11-22T09:23:28.908Z,7.50
2022-11-22T09:26:00.819Z,7.59
2022-11-22T09:28:29.312Z,7.54
2022-11-22T09:31:02.690Z,7.54
2022-11-22T09:33:30.816Z,7.58
2022-11-22T09:36:02.830Z,7.82
2022-11-22T09:38:31.453Z,7.66
2022-11-22T09:41:00.470Z,7.62
2022-11-22T09:43:38.894Z,7.77
2022-11-22T09:46:21.830Z,7.68
2022-11-22T09:49:09.692Z,7.67
2022-11-22T09:51:41.105Z,7.53
2022-11-22T09:54:11.911Z,7.57
2022-11-22T09:56:40.525Z,7.52
2022-11-22T09:59:15.341Z,7.52
2022-11-22T10:01:50.252Z,7.76
2022-11-22T10:04:23.955Z,7.66
2022-11-22T10:06:55.212Z,7.65
2022-11-22T10:09:35.268Z,7.54
2022-11-22T10:12:08.208Z,7.59
2022-11-22T10:14:45.487Z,7.65
2022-11-22T10:17:33.432Z,7.68
2022-11-22T10:20:06.941Z,7.74
2022-11-22T10:22:35.537Z,7.70
2022-11-22T10:25:14.930Z,7.71
2022-11-22T10:27:43.728Z,7.68
2022-11-22T10:30:16.224Z,7.68
2022-11-22T10:33:05.617Z,8.18
2022-11-22T10:35:47.160Z,8.02
2022-11-22T10:38:40.452Z,7.87
2022-11-22T10:41:17.798Z,8.00
2022-11-22T10:43:52.915Z,8.11
2022-11-22T10:46:31.185Z,8.07
2022-11-22T10:49:07.921Z,8.21
2022-11-22T10:51:48.637Z,8.04
2022-11-22T10:54:23.268Z,8.09
2022-11-22T10:56:56.937Z,8.12
2022-11-22T10:59:50.279Z,8.39
2022-11-22T11:02:42.516Z,8.21
2022-11-22T11:05:19.348Z,8.21
2022-11-22T11:07:56.577Z,8.28
2022-11-22T11:10:36.008Z,8.33
2022-11-22T11:13:08.131Z,8.87
2022-11-22T11:15:40.354Z,8.70
2022-11-22T11:18:16.375Z,8.50
2022-11-22T11:20:48.045Z,8.48
2022-11-22T11:23:16.570Z,8.46
2022-11-22T11:25:46.422Z,8.58
2022-11-22T11:28:24.842Z,8.39
2022-11-22T11:30:59.857Z,8.61
2022-11-22T11:33:30.336Z,8.77
2022-11-22T11:36:05.825Z,8.54
2022-11-22T11:38:38.105Z,8.52
2022-11-22T11:41:26.483Z,8.60
2022-11-22T11:43:55.833Z,8.57
2022-11-22T11:46:25.246Z,8.52
2022-11-22T11:48:54.108Z,8.89
2022-11-22T11:51:27.440Z,8.58
2022-11-22T11:53:59.779Z,8.67
2022-11-22T11:56:36.160Z,8.79
2022-11-22T11:59:08.520Z,8.74
2022-11-22T12:01:39.172Z,8.64
2022-11-22T12:04:15.641Z,8.74
2022-11-22T12:06:57.628Z,8.93
2022-11-22T12:09:32.444Z,8.74
2022-11-22T12:12:08.469Z,8.80
2022-11-22T12:15:03.778Z,8.78
2022-11-22T12:17:31.285Z,8.70
2022-11-22T12:20:04.791Z,8.63
2022-11-22T12:25:36.576Z,8.47
2022-11-22T12:28:20.147Z,8.59
2022-11-22T12:30:54.506Z,8.51
2022-11-22T12:33:29.087Z,8.32
2022-11-22T12:35:57.814Z,8.48
2022-11-22T12:38:33.902Z,8.44
2022-11-22T12:41:05.579Z,8.42
2022-11-22T12:43:38.573Z,8.58
2022-11-22T12:46:10.677Z,8.51
2022-11-22T12:48:23.245Z,8.52
2022-11-22T12:48:48.749Z,8.33
2022-11-22T12:51:25.076Z,8.37
2022-11-22T12:53:58.671Z,8.53
2022-11-22T12:56:33.806Z,8.51
2022-11-22T12:59:08.073Z,8.50
2022-11-22T13:01:44.261Z,8.79
2022-11-22T13:04:19.983Z,8.70
2022-11-22T13:06:56.713Z,8.63
2022-11-22T13:09:31.608Z,8.60
2022-11-22T13:12:04.371Z,8.65
2022-11-22T13:14:36.823Z,8.62
2022-11-22T13:17:08.250Z,8.52
2022-11-22T13:19:45.242Z,8.53
2022-11-22T13:22:20.482Z,8.44
2022-11-22T13:25:05.580Z,8.45
2022-11-22T13:27:37.404Z,8.51
2022-11-22T13:30:05.838Z,8.59
2022-11-22T13:32:35.948Z,8.77
2022-11-22T13:35:20.785Z,8.74
2022-11-22T13:37:51.986Z,8.48
2022-11-22T13:40:28.380Z,8.65
2022-11-22T13:43:47.817Z,8.31
2022-11-22T13:46:48.517Z,8.21
2022-11-22T13:49:35.321Z,8.18
2022-11-22T13:52:06.729Z,8.13
2022-11-22T13:54:57.958Z,8.33
2022-11-22T13:57:30.646Z,8.17
2022-11-22T14:00:46.348Z,8.16
2022-11-22T14:03:33.559Z,8.21
2022-11-22T14:06:02.334Z,8.14
2022-11-22T14:08:33.969Z,7.95
2022-11-22T14:11:28.889Z,7.93
2022-11-22T14:14:06.544Z,8.03
2022-11-22T14:16:48.240Z,7.92
2022-11-22T14:19:30.936Z,7.85
2022-11-22T14:22:12.084Z,7.89
2022-11-22T14:24:51.816Z,7.98
2022-11-22T14:27:35.502Z,7.87
2022-11-22T14:30:10.547Z,7.80
2022-11-22T14:32:55.374Z,7.81
2022-11-22T14:35:30.083Z,8.04
2022-11-22T14:38:29.031Z,7.85
2022-11-22T14:41:30.300Z,7.77
2022-11-22T14:44:01.203Z,7.71
2022-11-22T14:46:52.792Z,7.75
2022-11-22T14:49:31.102Z,7.65
2022-11-22T14:52:00.323Z,7.68
2022-11-22T14:54:31.004Z,7.79
2022-11-22T14:57:05.611Z,7.79
2022-11-22T15:00:17.732Z,7.67
2022-11-22T15:03:17.198Z,7.75
2022-11-22T15:09:17.049Z,7.87
2022-11-22T15:09:17.681Z,7.82
2022-11-22T15:12:17.913Z,7.83
2022-11-22T15:59:11.137Z,7.52
2022-11-22T16:01:41.082Z,7.48
2022-11-22T16:04:21.980Z,7.40
2022-11-22T16:06:51.116Z,7.32
2022-11-22T16:09:34.285Z,7.31
2022-11-22T16:12:04.704Z,7.28
2022-11-22T16:14:48.313Z,7.21
2022-11-22T16:17:34.271Z,7.16
2022-11-22T16:20:33.968Z,7.36
2022-11-22T16:23:25.185Z,7.27
2022-11-22T16:25:58.838Z,7.24
2022-11-22T16:28:34.627Z,7.17
2022-11-22T16:31:05.413Z,7.27
2022-11-22T16:33:33.866Z,7.22
2022-11-22T16:36:02.882Z,7.37
2022-11-22T16:38:31.010Z,7.25
2022-11-22T16:41:00.376Z,7.22
2022-11-22T16:43:35.034Z,7.18
2022-11-22T16:46:03.070Z,7.13
2022-11-22T16:48:32.907Z,7.20
2022-11-22T16:51:04.481Z,7.17
2022-11-22T16:53:40.871Z,7.37
2022-11-22T16:56:14.673Z,7.15
2022-11-22T16:58:42.420Z,7.16
2022-11-22T17:01:12.377Z,7.21
2022-11-22T17:03:40.362Z,7.20
2022-11-22T17:06:11.725Z,7.27
2022-11-22T17:08:39.973Z,7.43
2022-11-22T17:11:12.408Z,7.44
2022-11-22T17:13:41.016Z,7.45
2022-11-22T17:16:13.922Z,7.29
2022-11-22T17:18:42.589Z,7.15
2022-11-22T17:21:18.492Z,7.43
2022-11-22T17:23:46.902Z,7.25
2022-11-22T17:26:16.313Z,7.23
2022-11-22T17:28:44.031Z,7.28
2022-11-22T17:31:13.826Z,7.26
2022-11-22T17:33:41.750Z,7.24
2022-11-22T17:36:24.137Z,7.23
2022-11-22T17:38:52.097Z,7.21
2022-11-22T17:41:21.324Z,7.25
2022-11-22T17:43:49.263Z,7.22
2022-11-22T17:46:17.368Z,7.28
2022-11-22T17:48:45.118Z,7.36
2022-11-22T17:51:13.710Z,7.31
2022-11-22T17:53:41.424Z,7.27
2022-11-22T17:56:11.494Z,7.22
2022-11-22T17:58:41.187Z,7.21
2022-11-22T18:01:10.919Z,7.15
2022-11-22T18:03:39.199Z,7.18
2022-11-22T18:06:08.103Z,7.24
2022-11-22T18:08:36.141Z,7.12
2022-11-22T18:11:04.882Z,7.08
2022-11-22T18:13:35.662Z,7.06
2022-11-22T18:16:07.664Z,7.14
2022-11-22T18:21:25.720Z,7.13
2022-11-22T18:23:53.661Z,7.18
2022-11-22T18:26:39.870Z,7.14
2022-11-22T18:31:57.580Z,6.99
2022-11-22T18:34:25.922Z,6.95
2022-11-22T18:36:56.377Z,6.88
2022-11-22T18:39:29.255Z,6.91
2022-11-22T18:41:57.232Z,6.83
2022-11-22T18:44:25.578Z,6.97
2022-11-22T18:46:53.569Z,7.12
2022-11-22T18:49:22.817Z,7.04
2022-11-22T18:51:50.662Z,7.02
2022-11-22T18:54:19.799Z,7.04
2022-11-22T18:56:47.562Z,7.10
2022-11-22T18:59:15.520Z,7.10
2022-11-22T19:01:43.391Z,7.12
2022-11-22T19:04:13.746Z,7.08
2022-11-22T19:06:43.176Z,7.06
2022-11-22T19:09:11.551Z,6.98
2022-11-22T19:11:39.373Z,6.94
2022-11-22T19:14:07.653Z,6.72
2022-11-22T19:16:35.421Z,6.62
2022-11-22T19:19:03.256Z,6.48
2022-11-22T19:21:31.192Z,6.38
2022-11-22T19:24:00.416Z,6.29
2022-11-22T19:26:29.314Z,6.24
2022-11-22T19:28:57.851Z,6.19
2022-11-22T19:31:29.459Z,6.11
2022-11-22T19:33:57.636Z,6.07
2022-11-22T19:36:32.712Z,5.99
2022-11-22T19:39:04.365Z,5.97
2022-11-22T19:41:32.515Z,5.91
2022-11-22T19:44:01.364Z,5.89
2022-11-22T19:46:29.869Z,5.83
2022-11-22T19:48:59.883Z,5.80
2022-11-22T19:51:29.570Z,5.77
2022-11-22T19:54:00.003Z,5.78
2022-11-22T19:56:32.521Z,5.73
2022-11-22T19:59:02.729Z,5.64
2022-11-22T20:01:32.044Z,5.51
2022-11-22T20:04:01.774Z,5.41
2022-11-22T20:06:30.138Z,5.35
2022-11-22T20:09:02.690Z,5.33
2022-11-22T20:11:31.884Z,5.20
2022-11-22T20:13:59.680Z,5.14
2022-11-22T20:16:29.937Z,5.16
2022-11-22T20:18:58.921Z,5.28
2022-11-22T20:21:28.545Z,5.34
2022-11-22T20:23:56.743Z,5.36
2022-11-22T20:26:25.809Z,5.37
2022-11-22T20:29:00.116Z,5.41
2022-11-22T20:31:30.148Z,5.36
2022-11-22T20:34:00.055Z,5.36
2022-11-22T20:36:29.940Z,5.25
2022-11-22T20:38:58.451Z,5.12
2022-11-22T20:41:28.184Z,5.04
2022-11-22T20:43:56.461Z,4.93
2022-11-22T20:46:27.886Z,4.87
2022-11-22T20:48:57.993Z,4.80
2022-11-22T20:51:28.025Z,4.71
2022-11-22T20:53:56.877Z,4.73
2022-11-22T20:56:25.138Z,4.75
2022-11-22T20:58:53.547Z,4.68
2022-11-22T21:01:22.740Z,4.67
2022-11-22T21:03:52.406Z,4.68
2022-11-22T21:06:22.128Z,4.69
2022-11-22T21:08:50.204Z,4.68
2022-11-22T21:11:20.097Z,4.65
2022-11-22T21:13:48.378Z,4.62
2022-11-22T21:16:25.730Z,4.56
2022-11-22T21:18:56.141Z,4.49
2022-11-22T21:21:25.112Z,4.48
2022-11-22T21:23:53.821Z,4.59
2022-11-22T21:26:22.227Z,4.72
2022-11-22T21:28:50.580Z,4.84
2022-11-22T21:31:18.792Z,4.92
2022-11-22T21:33:47.014Z,4.91
2022-11-22T21:36:16.746Z,4.91
2022-11-22T21:38:44.487Z,4.86
2022-11-22T21:44:02.896Z,4.87
2022-11-22T21:46:30.596Z,4.91
2022-11-22T21:48:58.313Z,4.97
2022-11-22T21:51:27.373Z,4.95
2022-11-22T21:53:57.832Z,5.01
2022-11-22T21:56:26.081Z,5.04
2022-11-22T21:58:53.948Z,5.10
2022-11-22T22:01:21.828Z,5.08
2022-11-22T22:03:49.575Z,5.04
2022-11-22T22:06:17.233Z,5.01
2022-11-22T22:08:46.272Z,4.97
2022-11-22T22:11:13.929Z,4.94
2022-11-22T22:13:41.781Z,4.90
2022-11-22T22:16:15.685Z,4.89
2022-11-22T22:18:43.963Z,4.91
2022-11-22T22:21:14.289Z,4.90
2022-11-22T22:23:42.804Z,4.91
2022-11-22T22:26:14.064Z,4.89
2022-11-22T22:28:42.284Z,4.91
2022-11-22T22:31:12.431Z,4.94
2022-11-22T22:33:41.432Z,4.92
2022-11-22T22:36:11.066Z,4.92
2022-11-22T22:38:39.629Z,4.95
2022-11-22T22:41:09.294Z,4.95
2022-11-22T22:43:40.867Z,4.92
2022-11-22T22:46:11.716Z,4.96
2022-11-22T22:48:39.745Z,5.00
2022-11-22T22:51:10.294Z,5.08
2022-11-22T22:53:38.188Z,5.15
2022-11-22T22:56:07.278Z,5.20
2022-11-22T22:58:35.635Z,5.27
2022-11-22T23:01:10.505Z,5.29
2022-11-22T23:03:38.266Z,5.27
2022-11-22T23:06:07.537Z,5.30
2022-11-22T23:08:36.008Z,5.31
2022-11-22T23:11:05.493Z,5.33
2022-11-22T23:13:33.544Z,5.37
2022-11-22T23:16:01.362Z,5.37
2022-11-22T23:18:30.540Z,5.37
2022-11-22T23:21:01.394Z,5.33
2022-11-22T23:23:29.967Z,5.30
2022-11-22T23:26:01.578Z,5.33
2022-11-22T23:28:30.121Z,5.38
2022-11-22T23:31:03.929Z,5.44
2022-11-22T23:33:33.203Z,5.51
2022-11-22T23:36:03.020Z,5.55
2022-11-22T23:38:30.630Z,5.59
2022-11-22T23:40:58.426Z,5.58
2022-11-22T23:43:26.068Z,5.56
2022-11-22T23:45:53.822Z,5.56
2022-11-22T23:48:21.530Z,5.51
2022-11-22T23:50:50.537Z,5.47
2022-11-22T23:53:18.524Z,5.41
2022-11-22T23:55:46.380Z,5.38
2022-11-22T23:58:14.199Z,5.34
